Spirit Lake, IA (51360)

2:14 PM CDT on August 28, 2015 (GMT -0500)
Dickinson Co. Courthouse | | Change Station
CLOSE
Current Station
Personal Weather Station
Location: Spirit Lake, IA
Elevation: 1470 ft
Nearby Weather Stations

Elev 1470 ft 43.42 °N, 95.10 °W | Updated 2 seconds ago

Overcast
Overcast
61.8 °F
Feels Like 61.8 °F
N
5.7
Wind Variable Wind from ESE
Gusts 10.4 mph

Today
High -- | Low -- °F
--% Chance of Precip.
Yesterday
High -- | Low -- °F
Precip. -- in
6:39 AM 8:02 PM
Waxing Gibbous, 99% visible
Pressure 29.97 in
Visibility 3.0 miles
Clouds Mostly Cloudy 800 ft
Mostly Cloudy 1500 ft
Overcast 3400 ft
Dew Point 61 °F
Humidity 97%
Rainfall 0.76 in
Snow Depth Not available.
UV 3 out of 12
Pollen 3.10 out of 12
Air Quality Not available.
Flu Activity Not available.
METAR KMJQ 281854Z AUTO 10015G22KT 3SM BR BKN008 BKN015 OVC034 18/17 A2997 RMK AO2 LTG
Pressure 29.97 in
Visibility 3.0 miles
Clouds Mostly Cloudy 800 ft
Mostly Cloudy 1500 ft
Overcast 3400 ft
Dew Point 61 °F
Humidity 97%
Rainfall 0.76 in
Snow Depth Not available.
UV 3 out of 12
Pollen 3.10 out of 12
Air Quality Not available.
Flu Activity Not available.
METAR KMJQ 281854Z AUTO 10015G22KT 3SM BR BKN008 BKN015 OVC034 18/17 A2997 RMK AO2 LTG

10-Day Weather Forecast

×

Almanac

Astronomy

Aug. 28, 2015 Rise Set
Actual Time
Civil Twilight
Nautical Twilight
Astronomical Twilight
Moon
Length of Visible Light
Length of Day
Tomorrow will be .
, % of the Moon is Illuminated

Today's Extremes

State Highs State Lows

Community

WunderPhotos

Upload Photos

1,850,460 photos uploaded!

WunderBlogs® & News

Nearby

Air Quality

  Air Quality AQ Index Pollutant
Not available.

Snow Depth

Station Depth Elevation

Earthquake Activity

City Distance Mag. Time & Date
Minimum magnitude displayed is 2.5.

Coastal Water Temperatures

Place Temperature

Stations

Nearby Weather Stations

Station Location Temp. Windchill Dew Point Humidity Wind Precip. Elev Updated Type